Aikoumaru No.8 — JD3288 — position and weather

sailwx.info

Track history (hours):
 
Tides and Currents Weather Stations Pressure Air Temp Water Temp Dewpoint Dewpoint Depression Visibility Wind Speed Wind Dir Waves Ship Positions

Aikoumaru No.8

Last reported at 2016-Aug-24 21:30 UTC. Time now 2016-Aug-26 05:01 UTC.
Position N 34°53' E 139°57'.

Length 74 m; draft 4.8 m.

Type: Cargo ship. MMSI: 431003153.

Date/timePositionNaut miles runAvg speedWind from/ knotsBaromVisibWave heightAir tempDewpointWater temp
2016-Aug-24 21:30N 34°53' E 139°57'5811.1
2016-Aug-24 16:14N 35°33' E 140°47'811.7
2016-Aug-24 15:33N 35°40' E 140°53'18 8.9
2016-Aug-24 13:29N 35°56' E 140°42'2 2.2
2016-Aug-24 12:29N 35°56' E 140°40'1 0.0
2016-Aug-23 13:34N 35°55' E 140°41'8 7.8
2016-Aug-23 12:33N 35°52' E 140°50'1210.8
2016-Aug-23 11:27N 35°40' E 140°52'1512.0
2016-Aug-23 10:14N 35°28' E 140°42'811.9
2016-Aug-23 09:31N 35°21' E 140°36'1211.8
2016-Aug-23 08:29N 35°11' E 140°27'1212.3
2016-Aug-23 07:32N 35°04' E 140°16'1313.5
2016-Aug-23 06:33N 34°56' E 140°03'1313.0
2016-Aug-23 05:33N 34°52' E 139°48'1211.8
2016-Aug-23 04:33N 35°04' E 139°44'1212.1
2016-Aug-23 03:33N 35°16' E 139°46'1010.4
2016-Aug-23 02:34N 35°26' E 139°46'1211.8
2016-Aug-23 01:33N 35°35' E 139°56'6 5.1
2016-Aug-23 00:23N 35°40' E 139°57'0 0.0
2016-Aug-22 23:23N 35°40' E 139°57'0 0.0
2016-Aug-22 22:23N 35°40' E 139°57'0 0.0
2016-Aug-22 21:11N 35°40' E 139°57'0 0.0
2016-Aug-22 20:23N 35°40' E 139°57'0 0.0
2016-Aug-22 19:05N 35°40' E 139°57'0 0.0
2016-Aug-22 18:17N 35°40' E 139°57'0 0.0
2016-Aug-22 17:23N 35°40' E 139°57'0 0.0
2016-Aug-22 16:29N 35°40' E 139°57'0 0.0
2016-Aug-22 15:17N 35°40' E 139°57'0 0.0
2016-Aug-22 14:05N 35°40' E 139°57'0 0.0
2016-Aug-22 13:29N 35°40' E 139°57'0 0.0
2016-Aug-22 11:17N 35°40' E 139°57'2 3.2
2016-Aug-22 10:33N 35°38' E 139°59'4 3.7
2016-Aug-22 09:30N 35°36' E 139°55'0 0.0
2016-Aug-22 08:34N 35°36' E 139°55'0 0.0
2016-Aug-22 07:29N 35°36' E 139°55'0 0.1
2016-Aug-22 05:28N 35°36' E 139°55'0 0.1
2016-Aug-22 04:30N 35°36' E 139°55'0 0.0
2016-Aug-22 03:32N 35°36' E 139°55'0 0.0
2016-Aug-22 02:30N 35°36' E 139°55'0 0.0
2016-Aug-22 01:33N 35°36' E 139°55'0 0.0
2016-Aug-22 00:33N 35°36' E 139°55'0 0.0
2016-Aug-21 23:31N 35°36' E 139°55'0 0.0
2016-Aug-21 22:33N 35°36' E 139°55'0 0.0
2016-Aug-21 21:33N 35°36' E 139°55'0 0.1
2016-Aug-21 20:33N 35°36' E 139°55'0 0.0
2016-Aug-21 19:34N 35°36' E 139°55'0 0.0
2016-Aug-21 18:31N 35°36' E 139°55'0 0.0
2016-Aug-21 17:33N 35°36' E 139°55'0 0.0
2016-Aug-21 16:31N 35°36' E 139°55'0 0.0
2016-Aug-21 15:33N 35°36' E 139°55'0 0.0
2016-Aug-21 14:33N 35°36' E 139°55'0 0.0
2016-Aug-21 13:32N 35°36' E 139°55'0 0.1
2016-Aug-21 12:32N 35°36' E 139°55'0 0.0
2016-Aug-21 11:33N 35°36' E 139°55'0 0.0
2016-Aug-21 10:34N 35°36' E 139°55'0 0.0
2016-Aug-21 09:33N 35°36' E 139°55'0 0.0
2016-Aug-21 08:29N 35°36' E 139°55'0 0.0
2016-Aug-21 07:25N 35°36' E 139°55'0 0.0
2016-Aug-21 06:31N 35°36' E 139°55'0 0.0
2016-Aug-21 05:25N 35°36' E 139°55'0 0.1
2016-Aug-21 04:31N 35°36' E 139°55'0 0.0
2016-Aug-21 03:19N 35°36' E 139°55'0 0.0
2016-Aug-21 02:31N 35°36' E 139°55'5 5.4
2016-Aug-21 01:34N 35°31' E 139°53'1110.8
2016-Aug-21 00:33N 35°22' E 139°45'9 9.3
2016-Aug-20 23:33N 35°13' E 139°47'2311.4
2016-Aug-20 21:33N 34°56' E 139°28'  
2016-Aug-14 23:18N 34°03' E 135°03'911.6
2016-Aug-14 22:33N 34°11' E 135°03'1111.1
2016-Aug-14 21:31N 34°22' E 135°07'  
Track history (hours):
 
Tides and Currents Weather Stations Pressure Air Temp Water Temp Dewpoint Dewpoint Depression Visibility Wind Speed Wind Dir Waves Ship Positions

Aikoumaru No.8

Last reported at 2016-Aug-24 21:30 UTC. Time now 2016-Aug-26 05:01 UTC.
Position N 34°53' E 139°57'.

Length 74 m; draft 4.8 m.

Type: Cargo ship. MMSI: 431003153.

Date/timePositionNaut miles runAvg speedWind from/ knotsBaromVisibWave heightAir tempDewpointWater temp
2016-Aug-24 21:30N 34°53' E 139°57'5811.1
2016-Aug-24 16:14N 35°33' E 140°47'811.7
2016-Aug-24 15:33N 35°40' E 140°53'18 8.9
2016-Aug-24 13:29N 35°56' E 140°42'2 2.2
2016-Aug-24 12:29N 35°56' E 140°40'1 0.0
2016-Aug-23 13:34N 35°55' E 140°41'8 7.8
2016-Aug-23 12:33N 35°52' E 140°50'1210.8
2016-Aug-23 11:27N 35°40' E 140°52'1512.0
2016-Aug-23 10:14N 35°28' E 140°42'811.9
2016-Aug-23 09:31N 35°21' E 140°36'1211.8
2016-Aug-23 08:29N 35°11' E 140°27'1212.3
2016-Aug-23 07:32N 35°04' E 140°16'1313.5
2016-Aug-23 06:33N 34°56' E 140°03'1313.0
2016-Aug-23 05:33N 34°52' E 139°48'1211.8
2016-Aug-23 04:33N 35°04' E 139°44'1212.1
2016-Aug-23 03:33N 35°16' E 139°46'1010.4
2016-Aug-23 02:34N 35°26' E 139°46'1211.8
2016-Aug-23 01:33N 35°35' E 139°56'6 5.1
2016-Aug-23 00:23N 35°40' E 139°57'0 0.0
2016-Aug-22 23:23N 35°40' E 139°57'0 0.0
2016-Aug-22 22:23N 35°40' E 139°57'0 0.0
2016-Aug-22 21:11N 35°40' E 139°57'0 0.0
2016-Aug-22 20:23N 35°40' E 139°57'0 0.0
2016-Aug-22 19:05N 35°40' E 139°57'0 0.0
2016-Aug-22 18:17N 35°40' E 139°57'0 0.0
2016-Aug-22 17:23N 35°40' E 139°57'0 0.0
2016-Aug-22 16:29N 35°40' E 139°57'0 0.0
2016-Aug-22 15:17N 35°40' E 139°57'0 0.0
2016-Aug-22 14:05N 35°40' E 139°57'0 0.0
2016-Aug-22 13:29N 35°40' E 139°57'0 0.0
2016-Aug-22 11:17N 35°40' E 139°57'2 3.2
2016-Aug-22 10:33N 35°38' E 139°59'4 3.7
2016-Aug-22 09:30N 35°36' E 139°55'0 0.0
2016-Aug-22 08:34N 35°36' E 139°55'0 0.0
2016-Aug-22 07:29N 35°36' E 139°55'0 0.1
2016-Aug-22 05:28N 35°36' E 139°55'0 0.1
2016-Aug-22 04:30N 35°36' E 139°55'0 0.0
2016-Aug-22 03:32N 35°36' E 139°55'0 0.0
2016-Aug-22 02:30N 35°36' E 139°55'0 0.0
2016-Aug-22 01:33N 35°36' E 139°55'0 0.0
2016-Aug-22 00:33N 35°36' E 139°55'0 0.0
2016-Aug-21 23:31N 35°36' E 139°55'0 0.0
2016-Aug-21 22:33N 35°36' E 139°55'0 0.0
2016-Aug-21 21:33N 35°36' E 139°55'0 0.1
2016-Aug-21 20:33N 35°36' E 139°55'0 0.0
2016-Aug-21 19:34N 35°36' E 139°55'0 0.0
2016-Aug-21 18:31N 35°36' E 139°55'0 0.0
2016-Aug-21 17:33N 35°36' E 139°55'0 0.0
2016-Aug-21 16:31N 35°36' E 139°55'0 0.0
2016-Aug-21 15:33N 35°36' E 139°55'0 0.0
2016-Aug-21 14:33N 35°36' E 139°55'0 0.0
2016-Aug-21 13:32N 35°36' E 139°55'0 0.1
2016-Aug-21 12:32N 35°36' E 139°55'0 0.0
2016-Aug-21 11:33N 35°36' E 139°55'0 0.0
2016-Aug-21 10:34N 35°36' E 139°55'0 0.0
2016-Aug-21 09:33N 35°36' E 139°55'0 0.0
2016-Aug-21 08:29N 35°36' E 139°55'0 0.0
2016-Aug-21 07:25N 35°36' E 139°55'0 0.0
2016-Aug-21 06:31N 35°36' E 139°55'0 0.0
2016-Aug-21 05:25N 35°36' E 139°55'0 0.1
2016-Aug-21 04:31N 35°36' E 139°55'0 0.0
2016-Aug-21 03:19N 35°36' E 139°55'0 0.0
2016-Aug-21 02:31N 35°36' E 139°55'5 5.4
2016-Aug-21 01:34N 35°31' E 139°53'1110.8
2016-Aug-21 00:33N 35°22' E 139°45'9 9.3
2016-Aug-20 23:33N 35°13' E 139°47'2311.4
2016-Aug-20 21:33N 34°56' E 139°28'  
2016-Aug-14 23:18N 34°03' E 135°03'911.6
2016-Aug-14 22:33N 34°11' E 135°03'1111.1
2016-Aug-14 21:31N 34°22' E 135°07'  

Dump ship's entire track history